Time;durP1;ratioP1;P1;durP2;ratioP2;P2;SDS_P1;SDS_P2;PMS_P1;PMS_P2;Temp;Humidity;BMP_temperature;BMP_pressure;BME280_temperature;BME280_humidity;BME280_pressure;Samples;Min_cycle;Max_cycle;Signal;HPM_P1;HPM_P2
2021/04/06 00:00:46;;;;;;;8.77;5.87;;;;;;;-0.48;71.58;94553.80;1740074;82;21311;-70
2021/04/06 00:03:21;;;;;;;8.27;5.10;;;;;;;-0.57;72.12;94556.75;1740046;82;21273;-70
2021/04/06 00:05:52;;;;;;;8.40;4.60;;;;;;;-0.49;71.33;94557.23;1740054;82;21707;-70
2021/04/06 00:08:20;;;;;;;8.47;4.03;;;;;;;-0.42;71.58;94552.11;1740079;82;21567;-70
2021/04/06 00:10:52;;;;;;;7.13;5.30;;;;;;;-0.56;72.26;94546.38;1719260;82;21149;-70
2021/04/06 00:13:21;;;;;;;6.03;4.50;;;;;;;-0.67;72.04;94545.45;1740028;82;21587;-70
2021/04/06 00:15:49;;;;;;;6.77;4.20;;;;;;;-0.70;73.36;94545.44;1740339;82;21244;-70
2021/04/06 00:18:19;;;;;;;6.70;4.77;;;;;;;-0.76;72.87;94538.45;1740164;82;21718;-70
2021/04/06 00:20:48;;;;;;;9.53;4.67;;;;;;;-0.82;72.80;94541.45;1740392;82;21149;-70
2021/04/06 00:23:18;;;;;;;7.93;4.93;;;;;;;-0.72;72.54;94544.55;1719538;82;21146;-70
2021/04/06 00:25:49;;;;;;;7.63;4.67;;;;;;;-0.65;72.44;94539.86;1740376;82;21133;-70
2021/04/06 00:28:31;;;;;;;6.03;4.50;;;;;;;-0.59;72.22;94537.30;1719794;82;21556;-70
2021/04/06 00:31:03;;;;;;;10.50;5.40;;;;;;;-0.60;72.07;94534.72;1740404;82;21118;-70
2021/04/06 00:33:40;;;;;;;6.67;3.77;;;;;;;-0.56;71.64;94530.83;1740211;81;21299;-70
2021/04/06 00:36:08;;;;;;;8.03;4.73;;;;;;;-0.58;71.59;94530.39;1737484;82;21165;-70
2021/04/06 00:38:42;;;;;;;9.00;5.13;;;;;;;-0.59;72.45;94520.89;1754907;82;21622;-70
2021/04/06 00:41:14;;;;;;;11.27;6.40;;;;;;;-0.61;72.69;94530.38;1754026;82;21141;-70
2021/04/06 00:43:44;;;;;;;11.05;6.08;;;;;;;-0.63;72.19;94521.31;1754539;81;21122;-70
2021/04/06 00:46:20;;;;;;;10.23;5.57;;;;;;;-0.63;72.09;94521.72;1754234;82;21149;-70
2021/04/06 00:48:52;;;;;;;7.57;5.20;;;;;;;-0.70;72.78;94519.09;1753359;82;21117;-70
2021/04/06 00:51:21;;;;;;;6.65;4.90;;;;;;;-0.67;72.18;94520.41;1754467;82;21568;-70
2021/04/06 00:54:02;;;;;;;8.93;4.70;;;;;;;-0.61;71.72;94518.28;1754163;82;21141;-70
2021/04/06 00:56:37;;;;;;;6.40;3.10;;;;;;;-0.53;71.53;94513.14;1754118;82;21149;-70
2021/04/06 00:59:11;;;;;;;2.77;2.23;;;;;;;-0.58;72.35;94513.55;1754309;82;21140;-70
2021/04/06 01:01:48;;;;;;;8.67;4.53;;;;;;;-0.74;72.56;94513.45;1753953;82;21133;-71
2021/04/06 01:04:26;;;;;;;6.27;4.00;;;;;;;-0.80;72.23;94506.94;1754129;81;21152;-70
2021/04/06 01:07:13;;;;;;;4.77;3.43;;;;;;;-0.77;72.84;94504.80;1754179;82;21121;-70
2021/04/06 01:09:54;;;;;;;6.57;4.17;;;;;;;-0.78;72.66;94501.75;1754402;82;21113;-70
2021/04/06 01:29:05;;;;;;;5.43;3.87;;;;;;;-1.01;74.42;94481.73;1754568;82;21539;-69
2021/04/06 01:31:35;;;;;;;7.43;4.17;;;;;;;-0.97;74.03;94475.73;1754349;81;21572;-70
2021/04/06 01:34:04;;;;;;;8.93;4.50;;;;;;;-0.98;73.57;94482.22;1754216;81;21560;-70
2021/04/06 01:36:32;;;;;;;7.50;4.37;;;;;;;-0.94;73.43;94474.45;1754043;81;21110;-70
2021/04/06 01:39:00;;;;;;;7.33;4.33;;;;;;;-0.99;73.92;94473.98;1754361;82;21129;-70
2021/04/06 01:41:29;;;;;;;7.07;4.60;;;;;;;-1.07;74.55;94476.95;1754156;81;21156;-70
2021/04/06 01:43:58;;;;;;;7.80;4.60;;;;;;;-1.02;74.07;94473.54;1754078;81;21110;-70
2021/04/06 01:46:36;;;;;;;6.63;4.20;;;;;;;-0.90;73.75;94476.22;1754538;81;21117;-70
2021/04/06 01:49:01;;;;;;;5.78;3.85;;;;;;;-0.81;73.47;94476.70;1753511;82;21134;-70
2021/04/06 01:51:29;;;;;;;6.70;4.30;;;;;;;-0.86;73.19;94468.03;1726557;82;21591;-70
2021/04/06 01:53:57;;;;;;;6.23;3.67;;;;;;;-0.81;73.79;94457.71;1754156;82;21577;-69
2021/04/06 01:56:29;;;;;;;6.53;3.70;;;;;;;-0.95;73.41;94464.11;1754427;81;21156;-70
2021/04/06 01:59:03;;;;;;;5.80;4.00;;;;;;;-0.93;73.17;94459.37;1754321;82;21288;-70
2021/04/06 02:01:27;;;;;;;7.60;3.67;;;;;;;-0.79;72.88;94453.41;1753820;82;21121;-69
2021/04/06 02:04:05;;;;;;;5.53;3.10;;;;;;;-0.79;72.71;94452.12;1754324;82;21173;-70
2021/04/06 02:06:38;;;;;;;5.27;3.50;;;;;;;-0.82;72.64;94445.20;1754309;81;21090;-70
2021/04/06 02:09:09;;;;;;;5.47;3.50;;;;;;;-0.87;72.67;94442.57;1754282;82;21110;-70
2021/04/06 02:11:39;;;;;;;6.93;4.27;;;;;;;-0.88;72.90;94439.55;1726587;82;21146;-70
2021/04/06 02:14:12;;;;;;;8.50;3.37;;;;;;;-0.94;73.61;94426.55;1726516;82;21592;-70
2021/04/06 02:16:57;;;;;;;7.17;3.57;;;;;;;-0.93;73.34;94430.89;1780623;79;22884;-68
2021/04/06 02:19:35;;;;;;;5.87;3.80;;;;;;;-0.93;73.22;94420.97;1753910;81;21129;-70
2021/04/06 02:22:13;;;;;;;6.40;3.60;;;;;;;-0.96;73.00;94408.88;1754156;82;21112;-70
2021/04/06 02:24:46;;;;;;;5.60;3.70;;;;;;;-0.94;72.88;94411.45;1754192;81;21528;-70
2021/04/06 02:27:21;;;;;;;6.65;3.83;;;;;;;-1.06;73.76;94405.76;1754230;81;21140;-70
2021/04/06 02:29:59;;;;;;;6.07;3.63;;;;;;;-1.14;74.36;94400.97;1754081;82;21551;-69
2021/04/06 02:32:33;;;;;;;4.17;2.87;;;;;;;-1.06;73.67;94399.72;1753762;81;21090;-70
2021/04/06 02:35:08;;;;;;;4.90;3.53;;;;;;;-1.08;74.43;94389.38;1753953;81;21596;-70
2021/04/06 02:37:44;;;;;;;5.47;3.53;;;;;;;-1.07;73.96;94391.53;1754183;82;21133;-70
2021/04/06 02:40:15;;;;;;;5.27;3.43;;;;;;;-1.07;73.86;94385.05;1753962;81;21094;-70
2021/04/06 02:42:47;;;;;;;5.90;4.20;;;;;;;-1.18;74.45;94386.29;1754067;81;21540;-70
2021/04/06 02:45:22;;;;;;;5.20;3.50;;;;;;;-1.12;73.80;94382.44;1754161;82;21149;-70
2021/04/06 02:48:06;;;;;;;9.40;4.10;;;;;;;-1.03;73.48;94381.20;1753789;81;21129;-70
2021/04/06 02:50:36;;;;;;;10.37;4.73;;;;;;;-1.03;73.35;94383.80;1754063;82;21094;-70
2021/04/06 02:53:13;;;;;;;10.70;5.53;;;;;;;-1.05;73.32;94384.20;1754142;82;21136;-70
2021/04/06 02:55:42;;;;;;;7.47;4.13;;;;;;;-1.03;73.20;94386.38;1753895;82;21146;-69
2021/04/06 02:58:15;;;;;;;7.27;4.63;;;;;;;-1.06;73.19;94388.07;1754115;82;21174;-69
2021/04/06 03:00:43;;;;;;;;;;;;;;;-1.01;72.85;94388.97;1756364;81;21141;-70
2021/04/06 03:03:25;;;;;;;3.63;2.60;;;;;;;-0.96;72.90;94387.27;1754225;82;20142;-70
2021/04/06 03:06:04;;;;;;;27.67;11.10;;;;;;;-0.95;72.73;94379.95;1754423;82;21117;-69
2021/04/06 03:08:33;;;;;;;38.33;13.00;;;;;;;-0.98;73.17;94376.06;1754132;81;21541;-70
2021/04/06 03:11:04;;;;;;;14.67;6.97;;;;;;;-1.05;73.94;94389.82;1724526;82;21157;-70
2021/04/06 03:13:33;;;;;;;10.47;5.17;;;;;;;-1.08;73.74;94379.02;1753958;81;21142;-70
2021/04/06 03:16:04;;;;;;;20.33;8.07;;;;;;;-1.02;73.26;94376.45;1754166;81;21156;-70
2021/04/06 03:18:36;;;;;;;19.90;8.23;;;;;;;-0.95;73.25;94370.89;1754635;82;21263;-70
2021/04/06 03:21:08;;;;;;;36.30;13.57;;;;;;;-0.87;73.22;94363.59;1754749;81;21275;-70
2021/04/06 03:23:37;;;;;;;27.47;10.80;;;;;;;-0.90;73.35;94367.90;1754245;82;21212;-70
2021/04/06 03:26:07;;;;;;;15.80;7.50;;;;;;;-0.85;73.54;94368.79;1754871;82;21160;-70
2021/04/06 03:28:40;;;;;;;12.93;6.97;;;;;;;-0.82;73.43;94367.50;1754386;82;21355;-70
2021/04/06 03:31:13;;;;;;;10.03;5.67;;;;;;;-0.77;72.83;94366.23;1754400;82;21133;-70
2021/04/06 03:33:46;;;;;;;6.30;4.27;;;;;;;-0.82;73.06;94370.09;1754104;82;21125;-70
2021/04/06 03:36:29;;;;;;;8.30;4.03;;;;;;;-0.85;72.66;94361.45;1754310;81;21118;-70
2021/04/06 03:39:02;;;;;;;6.07;3.90;;;;;;;-0.78;72.65;94361.89;1754264;82;21158;-69
2021/04/06 03:41:32;;;;;;;5.57;3.40;;;;;;;-0.82;72.76;94365.35;1754300;81;21133;-70
2021/04/06 03:44:11;;;;;;;5.13;3.53;;;;;;;-0.87;73.30;94366.62;1754407;81;21149;-70
2021/04/06 03:46:41;;;;;;;9.27;4.30;;;;;;;-0.96;74.42;94365.26;1754325;81;21133;-70
2021/04/06 03:49:22;;;;;;;11.17;5.20;;;;;;;-0.85;73.79;94371.81;1754535;82;21276;-70
2021/04/06 03:52:00;;;;;;;5.40;3.63;;;;;;;-0.87;74.98;94367.48;1754190;82;21138;-70
2021/04/06 03:54:45;;;;;;;7.10;3.93;;;;;;;-0.90;74.17;94373.94;1751218;82;21575;-70
2021/04/06 03:57:36;;;;;;;6.93;4.00;;;;;;;-0.97;74.54;94362.25;1754489;82;21157;-70
2021/04/06 04:00:09;;;;;;;7.63;4.43;;;;;;;-0.94;74.36;94369.59;1754178;82;21118;-70
2021/04/06 04:02:38;;;;;;;8.57;4.73;;;;;;;-0.80;73.83;94363.20;1754256;81;21563;-70
2021/04/06 04:05:07;;;;;;;7.53;4.30;;;;;;;-0.71;73.57;94364.52;1754065;81;21632;-70
2021/04/06 04:07:37;;;;;;;19.27;9.47;;;;;;;-0.63;73.41;94362.00;1754390;82;21562;-70
2021/04/06 04:10:11;;;;;;;8.53;5.10;;;;;;;-0.60;73.00;94358.55;1754245;82;21157;-70
2021/04/06 04:12:40;;;;;;;6.30;3.77;;;;;;;-0.55;72.63;94356.41;1754378;81;21152;-70
2021/04/06 04:15:09;;;;;;;4.93;3.27;;;;;;;-0.58;72.47;94349.92;1752724;81;21153;-70
2021/04/06 04:17:37;;;;;;;7.80;4.70;;;;;;;-0.52;72.57;94345.19;1740071;82;21154;-70
2021/04/06 04:20:11;;;;;;;8.43;4.87;;;;;;;-0.54;72.30;94343.02;1740408;82;21130;-70
2021/04/06 04:22:38;;;;;;;8.37;4.67;;;;;;;-0.60;72.56;94339.98;1740426;82;21145;-70
2021/04/06 04:25:09;;;;;;;5.30;3.57;;;;;;;-0.67;72.77;94344.70;1740123;82;21710;-69
2021/04/06 04:27:39;;;;;;;4.47;3.30;;;;;;;-0.68;72.61;94344.24;1740255;82;21285;-69
2021/04/06 04:30:09;;;;;;;8.07;5.10;;;;;;;-0.62;73.21;94336.95;1740151;82;21280;-70
2021/04/06 04:32:40;;;;;;;13.33;8.03;;;;;;;-0.59;73.44;94328.75;1740242;82;21287;-70
2021/04/06 04:35:09;;;;;;;11.67;6.53;;;;;;;-0.55;73.24;94332.23;1739966;82;21165;-69
2021/04/06 04:37:37;;;;;;;12.50;6.80;;;;;;;-0.49;73.80;94327.91;1740195;81;21742;-69
2021/04/06 04:40:07;;;;;;;11.87;6.27;;;;;;;-0.45;73.18;94323.19;1740403;82;21608;-70
2021/04/06 04:42:35;;;;;;;11.60;5.53;;;;;;;-0.38;72.69;94324.48;1740314;82;21288;-70
2021/04/06 04:45:07;;;;;;;11.20;5.80;;;;;;;-0.35;72.72;94318.91;1740169;81;21281;-69
2021/04/06 04:47:34;;;;;;;8.57;4.63;;;;;;;-0.34;72.92;94316.73;1740033;82;21145;-69
2021/04/06 04:50:04;;;;;;;9.90;5.43;;;;;;;-0.27;72.36;94317.19;1740296;81;21670;-70
2021/04/06 04:52:32;;;;;;;8.83;5.40;;;;;;;-0.18;72.29;94316.32;1740047;82;21279;-70
2021/04/06 04:55:00;;;;;;;11.37;6.27;;;;;;;-0.08;72.19;94311.58;1740365;82;21308;-70
2021/04/06 04:57:29;;;;;;;10.13;6.27;;;;;;;-0.05;72.33;94315.91;1740300;82;21146;-70
2021/04/06 04:59:56;;;;;;;9.63;5.27;;;;;;;0.02;72.13;94307.72;1740409;82;21146;-70
2021/04/06 05:02:24;;;;;;;11.40;5.83;;;;;;;0.03;72.37;94309.03;1740136;82;21287;-70
2021/04/06 05:04:52;;;;;;;9.43;5.80;;;;;;;0.09;72.51;94306.42;1740040;82;21699;-70
2021/04/06 05:07:20;;;;;;;12.53;8.37;;;;;;;0.14;72.38;94297.36;1739993;82;21276;-69
2021/04/06 05:09:48;;;;;;;15.20;7.77;;;;;;;0.26;72.20;94296.50;1740301;81;21695;-69
2021/04/06 05:12:15;;;;;;;13.87;8.07;;;;;;;0.44;72.34;94290.00;1740245;82;21137;-70
2021/04/06 05:14:45;;;;;;;15.60;7.90;;;;;;;0.58;72.01;94296.05;1739995;82;21154;-70
2021/04/06 05:17:14;;;;;;;17.00;9.70;;;;;;;0.66;71.47;94297.33;1740240;81;21173;-70
2021/04/06 05:19:42;;;;;;;12.60;8.00;;;;;;;0.66;71.48;94300.37;1740197;82;21268;-70
2021/04/06 05:22:09;;;;;;;10.80;6.20;;;;;;;0.71;70.98;94292.14;1740044;82;21154;-70
2021/04/06 05:24:37;;;;;;;13.93;9.00;;;;;;;0.74;70.64;94294.72;1740259;82;21268;-70
2021/04/06 05:27:05;;;;;;;16.53;9.50;;;;;;;0.73;71.19;94287.78;1740269;82;21704;-70
2021/04/06 05:29:33;;;;;;;17.60;9.90;;;;;;;0.81;70.94;94290.81;1740300;82;21272;-70
2021/04/06 05:32:01;;;;;;;16.57;10.03;;;;;;;0.94;70.36;94294.68;1740242;82;21137;-70
2021/04/06 05:34:28;;;;;;;18.10;8.83;;;;;;;1.01;70.01;94302.45;1739987;81;21162;-70
2021/04/06 05:36:56;;;;;;;20.67;12.40;;;;;;;1.05;70.62;94305.44;1740012;82;21726;-70
2021/04/06 05:39:24;;;;;;;26.07;13.87;;;;;;;1.12;70.24;94292.45;1740087;82;21133;-70
2021/04/06 05:41:51;;;;;;;33.90;18.33;;;;;;;1.13;69.83;94288.97;1740301;81;21339;-70
2021/04/06 05:44:19;;;;;;;29.63;17.97;;;;;;;1.13;69.54;94294.17;1740072;82;21165;-70
2021/04/06 05:46:50;;;;;;;27.50;15.03;;;;;;;1.12;69.91;94292.45;1740355;82;21291;-70
2021/04/06 05:49:23;;;;;;;22.20;10.23;;;;;;;1.20;70.30;94292.84;1740104;82;21690;-70
2021/04/06 05:51:52;;;;;;;13.53;6.53;;;;;;;1.28;69.81;94288.91;1740482;82;21268;-68
2021/04/06 05:54:22;;;;;;;13.80;6.73;;;;;;;1.32;69.64;94281.98;1740061;82;21308;-68
2021/04/06 05:56:50;;;;;;;11.53;6.87;;;;;;;1.33;69.90;94280.66;1740112;82;21304;-68
2021/04/06 05:59:18;;;;;;;23.53;14.73;;;;;;;1.36;70.49;94283.69;1740377;82;21272;-68
2021/04/06 06:01:47;;;;;;;23.37;13.10;;;;;;;1.37;70.96;94281.09;1740254;81;21722;-68
2021/04/06 06:04:17;;;;;;;79.60;45.60;;;;;;;1.40;70.23;94283.67;1740084;82;21149;-68
2021/04/06 06:06:45;;;;;;;26.23;15.67;;;;;;;1.45;69.78;94277.16;1740078;82;21284;-68
2021/04/06 06:09:14;;;;;;;22.27;13.00;;;;;;;1.47;69.99;94284.52;1740059;82;21295;-68
2021/04/06 06:12:11;;;;;;;32.07;16.50;;;;;;;1.53;70.16;94288.37;1719312;82;21149;-68
2021/04/06 06:14:53;;;;;;;29.33;14.53;;;;;;;1.58;69.82;94285.75;1740010;82;21277;-70
2021/04/06 06:17:25;;;;;;;18.73;10.43;;;;;;;1.57;70.23;94290.09;1745912;81;21177;-70
2021/04/06 06:19:59;;;;;;;20.83;11.57;;;;;;;1.67;70.20;94287.02;1748001;82;21157;-70
2021/04/06 06:22:30;;;;;;;33.03;17.20;;;;;;;1.84;69.68;94280.39;1748628;82;21170;-70
2021/04/06 06:25:06;;;;;;;25.50;14.37;;;;;;;1.90;68.45;94285.13;1748251;81;21117;-70
2021/04/06 06:27:41;;;;;;;18.43;10.00;;;;;;;1.94;69.06;94288.15;1748741;82;21548;-70
2021/04/06 06:30:37;;;;;;;15.87;10.10;;;;;;;1.95;69.79;94291.16;1748330;82;21638;-70
2021/04/06 06:33:28;;;;;;;42.07;18.33;;;;;;;2.04;68.59;94291.55;1748193;82;21145;-70
2021/04/06 06:36:05;;;;;;;37.53;16.37;;;;;;;2.18;67.69;94288.84;1748101;82;21143;-70
2021/04/06 06:38:42;;;;;;;40.00;21.50;;;;;;;2.30;67.80;94287.45;1748145;82;21142;-70
2021/04/06 06:41:14;;;;;;;43.40;18.93;;;;;;;2.45;67.89;94287.77;1748508;81;21117;-70
2021/04/06 06:43:46;;;;;;;21.70;12.77;;;;;;;2.57;66.89;94263.34;1748231;82;21134;-68
2021/04/06 06:46:30;;;;;;;22.57;10.63;;;;;;;2.69;67.20;94258.46;1748173;82;21142;-68
2021/04/06 06:49:07;;;;;;;31.53;15.73;;;;;;;2.83;67.21;94255.73;1743161;82;21572;-70
2021/04/06 06:51:40;;;;;;;32.67;16.63;;;;;;;2.91;66.20;94261.72;1748313;82;21137;-70
2021/04/06 06:54:08;;;;;;;21.85;13.53;;;;;;;3.01;65.61;94258.98;1748596;82;21141;-68
2021/04/06 06:56:42;;;;;;;161.87;64.93;;;;;;;3.11;65.12;94258.89;1748160;82;21178;-68
2021/04/06 06:59:10;;;;;;;52.20;27.43;;;;;;;3.14;64.04;94261.02;1748429;82;21129;-68
2021/04/06 07:01:38;;;;;;;121.60;81.50;;;;;;;3.25;64.01;94259.58;1748527;82;21161;-68
2021/04/06 07:04:10;;;;;;;30.70;15.73;;;;;;;3.34;64.24;94259.47;1748475;81;21137;-68
2021/04/06 07:06:43;;;;;;;36.43;19.97;;;;;;;3.40;62.60;94257.22;1748496;82;21559;-68
2021/04/06 07:09:28;;;;;;;54.70;35.13;;;;;;;3.46;62.48;94254.11;1748322;81;21102;-68
2021/04/06 07:12:01;;;;;;;40.60;29.27;;;;;;;3.56;63.25;94254.00;1748421;82;21118;-68
2021/04/06 07:14:31;;;;;;;23.73;14.13;;;;;;;3.65;61.89;94245.62;1748622;82;21145;-68
2021/04/06 07:17:04;;;;;;;32.27;18.63;;;;;;;3.84;62.42;94238.83;1744769;81;21130;-68
2021/04/06 07:19:44;;;;;;;19.93;13.03;;;;;;;4.03;61.33;94237.67;1740192;81;21138;-68
2021/04/06 07:22:14;;;;;;;15.97;9.67;;;;;;;4.21;61.29;94233.91;1740422;81;21142;-68
2021/04/06 07:24:42;;;;;;;20.90;11.67;;;;;;;4.40;62.09;94237.52;1739893;82;21273;-68
2021/04/06 07:27:13;;;;;;;14.47;9.80;;;;;;;4.56;60.73;94232.44;1740085;82;21178;-68
2021/04/06 07:29:42;;;;;;;17.17;10.10;;;;;;;4.77;61.07;94239.05;1740485;82;21142;-68
2021/04/06 07:32:17;;;;;;;16.00;9.60;;;;;;;4.91;60.13;94227.91;1740150;82;21162;-68
2021/04/06 07:34:44;;;;;;;15.95;11.15;;;;;;;5.08;60.24;94226.26;1740057;82;21275;-68
2021/04/06 07:37:12;;;;;;;88.67;72.27;;;;;;;5.20;59.67;94226.02;1740349;81;21291;-68
2021/04/06 07:39:41;;;;;;;15.03;9.70;;;;;;;5.33;60.24;94225.78;1740242;82;21272;-68
2021/04/06 07:42:10;;;;;;;10.63;7.67;;;;;;;5.47;59.99;94231.59;1740356;82;21133;-68
2021/04/06 07:44:40;;;;;;;5.77;3.37;;;;;;;5.64;58.43;94220.75;1740357;81;21154;-68
2021/04/06 07:47:09;;;;;;;12.97;9.97;;;;;;;5.97;53.63;94208.73;1740457;82;21138;-68
2021/04/06 07:49:38;;;;;;;6.43;5.00;;;;;;;6.28;55.52;94193.59;1740137;82;21371;-69
2021/04/06 07:52:18;;;;;;;6.27;4.77;;;;;;;6.59;50.31;94187.57;1740444;82;21171;-68
2021/04/06 07:54:49;;;;;;;7.73;5.27;;;;;;;6.86;50.86;94183.38;1739768;82;21150;-68
2021/04/06 07:57:17;;;;;;;6.73;4.93;;;;;;;7.03;47.66;94189.02;1740120;82;21308;-68
2021/04/06 07:59:52;;;;;;;5.07;3.97;;;;;;;7.14;49.13;94184.78;1740157;82;21114;-68
2021/04/06 08:02:24;;;;;;;7.97;5.57;;;;;;;7.23;48.65;94181.02;1740253;82;21537;-69
2021/04/06 08:04:55;;;;;;;8.30;3.97;;;;;;;7.26;47.09;94179.19;1740132;82;21548;-69
2021/04/06 08:07:33;;;;;;;6.30;4.37;;;;;;;7.27;47.80;94186.14;1740323;82;21138;-68
2021/04/06 08:10:18;;;;;;;4.40;3.37;;;;;;;7.28;47.42;94187.00;1740143;82;21683;-68
2021/04/06 08:12:49;;;;;;;5.73;4.67;;;;;;;7.30;47.45;94200.48;1740219;82;21723;-68
2021/04/06 08:15:19;;;;;;;5.00;3.17;;;;;;;7.34;49.30;94203.90;1720247;82;21138;-68
2021/04/06 08:17:54;;;;;;;6.30;3.60;;;;;;;7.32;47.94;94205.23;1745445;81;21193;-69
2021/04/06 08:20:35;;;;;;;7.60;5.30;;;;;;;7.28;47.13;94202.31;1748366;82;21146;-69
2021/04/06 08:23:08;;;;;;;8.97;5.13;;;;;;;7.21;46.68;94209.09;1748201;81;21565;-68
2021/04/06 08:25:39;;;;;;;8.53;4.60;;;;;;;7.19;47.75;94210.43;1719005;82;21117;-68
2021/04/06 08:28:29;;;;;;;6.65;4.17;;;;;;;7.15;47.78;94216.20;1748725;82;21568;-68
2021/04/06 08:31:20;;;;;;;6.63;4.43;;;;;;;7.11;47.72;94217.20;1747699;82;21149;-68
2021/04/06 08:33:48;;;;;;;6.40;3.53;;;;;;;7.03;47.93;94223.54;1748382;82;21572;-68
2021/04/06 08:36:28;;;;;;;6.27;4.10;;;;;;;6.95;47.70;94219.81;1748374;82;21541;-68
2021/04/06 08:38:57;;;;;;;7.73;5.00;;;;;;;6.90;48.70;94223.01;1748242;82;21087;-68
2021/04/06 08:41:32;;;;;;;5.73;4.07;;;;;;;6.87;49.48;94217.39;1748598;82;21141;-68
2021/04/06 08:44:04;;;;;;;8.30;5.70;;;;;;;6.81;49.36;94214.09;1748485;82;21603;-68
2021/04/06 08:46:43;;;;;;;9.30;6.17;;;;;;;6.71;48.96;94206.45;1748579;82;21125;-69
2021/04/06 08:49:18;;;;;;;6.43;4.70;;;;;;;6.71;49.19;94217.40;1748402;82;21094;-68
2021/04/06 08:51:56;;;;;;;8.87;5.33;;;;;;;6.62;49.23;94222.86;1748127;82;21136;-68
2021/04/06 08:54:31;;;;;;;5.93;4.87;;;;;;;6.54;49.33;94228.30;1748272;82;21115;-68
2021/04/06 08:57:03;;;;;;;6.73;5.10;;;;;;;6.49;50.03;94232.80;1748530;82;21170;-68
2021/04/06 08:59:39;;;;;;;25.43;15.63;;;;;;;6.43;50.30;94232.50;1748426;82;21517;-68
2021/04/06 09:02:16;;;;;;;10.23;6.57;;;;;;;6.41;50.62;94232.13;1748605;82;21509;-68
2021/04/06 09:04:47;;;;;;;9.77;7.43;;;;;;;6.38;51.06;94239.62;1748577;82;21125;-69
2021/04/06 09:07:25;;;;;;;5.83;4.97;;;;;;;6.36;50.93;94236.63;1748392;81;21543;-68
2021/04/06 09:10:03;;;;;;;6.67;4.53;;;;;;;6.36;51.13;94241.41;1748261;82;21125;-68
2021/04/06 09:12:36;;;;;;;7.57;5.27;;;;;;;6.33;50.83;94238.02;1748189;82;21143;-68
2021/04/06 09:15:06;;;;;;;;;;;;;;;6.29;50.72;94230.20;1721814;82;21133;-68
2021/04/06 09:17:36;;;;;;;78.60;47.97;;;;;;;6.29;51.24;94219.72;1751188;81;20408;-68
2021/04/06 09:20:17;;;;;;;19.60;13.60;;;;;;;6.33;51.57;94223.15;1753976;82;21110;-69
2021/04/06 09:22:50;;;;;;;20.13;13.83;;;;;;;6.39;51.29;94215.13;1754140;82;21117;-68
2021/04/06 09:25:25;;;;;;;15.28;9.65;;;;;;;6.46;51.46;94214.53;1754480;82;21509;-68
2021/04/06 09:28:01;;;;;;;13.17;8.60;;;;;;;6.59;51.39;94220.33;1753898;81;21126;-68
2021/04/06 09:30:44;;;;;;;13.33;8.03;;;;;;;6.74;51.79;94214.69;1754216;82;21154;-68
2021/04/06 09:33:12;;;;;;;6.37;4.63;;;;;;;6.88;50.58;94212.58;1753625;82;21145;-68
2021/04/06 09:35:45;;;;;;;5.72;4.00;;;;;;;7.05;50.21;94202.07;1753313;82;21185;-68
2021/04/06 09:38:17;;;;;;;;;;;;;;;7.20;49.48;94212.14;1756905;82;21146;-68
2021/04/06 09:40:44;;;;;;;8.80;4.10;;;;;;;7.39;49.49;94203.31;1754131;82;20146;-68
2021/04/06 09:43:12;;;;;;;6.90;4.30;;;;;;;7.54;48.96;94196.77;1754377;81;21137;-68
2021/04/06 09:45:40;;;;;;;8.03;4.93;;;;;;;7.61;48.94;94195.69;1754400;81;21137;-69
2021/04/06 09:48:14;;;;;;;6.83;5.60;;;;;;;7.59;48.58;94179.97;1754100;81;21588;-68
2021/04/06 09:51:06;;;;;;;8.23;6.03;;;;;;;7.69;49.00;94185.81;1754318;81;21109;-68
2021/04/06 09:53:37;;;;;;;7.30;5.57;;;;;;;7.73;48.91;94179.54;1754363;82;21125;-69
2021/04/06 09:56:08;;;;;;;6.60;4.92;;;;;;;7.77;48.27;94177.70;1754321;82;21173;-68
2021/04/06 09:58:36;;;;;;;8.43;4.93;;;;;;;7.73;47.70;94177.37;1754079;82;21575;-68
2021/04/06 10:01:17;;;;;;;8.13;4.87;;;;;;;7.67;47.76;94175.80;1754071;82;21145;-68
2021/04/06 10:03:49;;;;;;;6.57;4.73;;;;;;;7.65;47.74;94178.92;1753679;82;21111;-69
2021/04/06 10:06:17;;;;;;;6.07;4.43;;;;;;;7.67;48.25;94182.36;1754343;82;21137;-69
2021/04/06 10:08:45;;;;;;;7.10;5.50;;;;;;;7.70;48.17;94175.70;1754291;82;21157;-69
2021/04/06 10:11:23;;;;;;;6.93;4.77;;;;;;;7.66;47.98;94175.41;1754290;82;21106;-68
2021/04/06 10:13:51;;;;;;;8.50;5.60;;;;;;;7.68;48.27;94177.50;1726453;82;21547;-69
2021/04/06 10:16:20;;;;;;;8.10;5.03;;;;;;;7.75;47.17;94184.76;1754138;81;21600;-69
2021/04/06 10:18:49;;;;;;;7.27;4.30;;;;;;;7.75;47.58;94182.98;1754001;81;21168;-69
2021/04/06 10:21:24;;;;;;;8.20;5.10;;;;;;;7.75;47.66;94176.42;1754080;81;21604;-69
2021/04/06 10:24:06;;;;;;;9.93;5.47;;;;;;;7.86;47.79;94187.94;1754100;82;21141;-69
2021/04/06 10:26:34;;;;;;;11.47;7.47;;;;;;;7.88;47.74;94193.97;1754259;82;21125;-69
2021/04/06 10:29:06;;;;;;;9.63;6.33;;;;;;;7.85;48.35;94191.45;1754292;82;21157;-69
2021/04/06 10:31:53;;;;;;;8.27;5.43;;;;;;;7.92;49.10;94206.11;1754296;82;21117;-69
2021/04/06 10:34:21;;;;;;;7.60;5.80;;;;;;;7.99;48.07;94203.71;1754293;81;21540;-69
2021/04/06 10:37:10;;;;;;;8.57;5.93;;;;;;;7.99;47.69;94202.86;1754003;81;21141;-69
2021/04/06 10:39:42;;;;;;;6.30;4.60;;;;;;;7.99;47.52;94212.05;1754515;82;21129;-69
2021/04/06 10:42:14;;;;;;;11.30;7.80;;;;;;;7.80;47.76;94198.14;1754084;82;21160;-69
2021/04/06 10:44:45;;;;;;;6.53;3.67;;;;;;;7.66;48.87;94202.09;1754174;81;21098;-69
2021/04/06 10:47:28;;;;;;;9.47;6.37;;;;;;;7.69;49.03;94216.45;1754427;82;21548;-69
2021/04/06 10:49:59;;;;;;;7.10;5.53;;;;;;;7.56;50.94;94215.95;1754532;82;21248;-69
2021/04/06 10:52:34;;;;;;;7.90;6.10;;;;;;;7.56;49.97;94214.65;1754094;82;21130;-68
2021/04/06 10:55:06;;;;;;;10.90;7.20;;;;;;;7.61;49.56;94204.88;1754508;82;21252;-68
2021/04/06 10:57:38;;;;;;;10.67;7.97;;;;;;;7.72;50.42;94204.09;1727539;82;21121;-69
2021/04/06 11:00:26;;;;;;;5.83;4.80;;;;;;;7.75;50.73;94208.39;1753864;82;21236;-68
2021/04/06 11:03:16;;;;;;;8.67;7.20;;;;;;;7.71;51.08;94224.70;1726923;82;21141;-69
2021/04/06 11:05:45;;;;;;;11.10;8.53;;;;;;;7.53;51.90;94233.97;1754065;82;21555;-68
2021/04/06 11:08:24;;;;;;;9.07;6.13;;;;;;;7.41;52.26;94239.98;1754410;82;21556;-68
2021/04/06 11:10:59;;;;;;;12.63;9.73;;;;;;;7.49;52.74;94240.20;1727081;82;21121;-69
2021/04/06 11:13:27;;;;;;;6.50;5.13;;;;;;;7.35;54.20;94236.63;1749208;82;21123;-69
2021/04/06 11:15:55;;;;;;;11.87;8.97;;;;;;;7.31;55.84;94232.39;1754274;81;21587;-68
2021/04/06 11:18:23;;;;;;;12.07;9.77;;;;;;;7.34;55.89;94237.55;1754117;82;21552;-69
2021/04/06 11:20:51;;;;;;;13.43;10.13;;;;;;;7.46;57.25;94235.47;1754203;82;21110;-69
2021/04/06 11:23:19;;;;;;;8.73;6.73;;;;;;;7.52;56.00;94236.63;1754349;82;21148;-69
2021/04/06 11:25:47;;;;;;;17.13;12.30;;;;;;;7.51;55.61;94242.34;1754139;82;21144;-68
2021/04/06 11:28:15;;;;;;;14.27;10.37;;;;;;;7.51;56.23;94238.39;1754365;82;21536;-69
2021/04/06 11:30:42;;;;;;;15.00;11.30;;;;;;;7.51;56.08;94238.39;1727037;82;21567;-68
2021/04/06 11:33:10;;;;;;;14.00;10.57;;;;;;;7.53;56.99;94232.66;1754206;82;21157;-69
2021/04/06 11:35:38;;;;;;;13.00;10.10;;;;;;;7.83;57.10;94223.45;1754243;82;21591;-69
2021/04/06 11:38:06;;;;;;;21.63;14.50;;;;;;;8.05;55.51;94228.06;1754230;82;21110;-69
2021/04/06 11:40:33;;;;;;;13.97;10.07;;;;;;;7.96;55.34;94227.45;1754365;82;21133;-69
2021/04/06 11:43:02;;;;;;;14.13;9.90;;;;;;;7.95;57.23;94224.86;1754163;82;21106;-69
2021/04/06 11:45:30;;;;;;;12.63;10.37;;;;;;;8.08;57.31;94229.28;1754535;82;21161;-69
2021/04/06 11:47:57;;;;;;;11.27;9.13;;;;;;;8.18;56.56;94224.14;1754252;82;21153;-69
2021/04/06 11:50:25;;;;;;;17.53;11.70;;;;;;;8.18;57.62;94242.53;1754230;82;21536;-69
2021/04/06 11:52:53;;;;;;;20.67;12.40;;;;;;;8.16;59.29;94252.23;1754253;82;21555;-69
2021/04/06 11:55:21;;;;;;;10.43;7.47;;;;;;;7.75;59.54;94268.77;1754110;82;21157;-68
2021/04/06 11:57:49;;;;;;;18.90;11.50;;;;;;;7.17;60.96;94275.64;1754283;82;21137;-69
2021/04/06 12:00:19;;;;;;;14.93;8.43;;;;;;;6.58;62.38;94278.89;1754576;82;21552;-68
2021/04/06 12:02:47;;;;;;;9.50;6.00;;;;;;;5.92;63.97;94290.41;1754413;81;21121;-68
2021/04/06 12:05:14;;;;;;;3.97;3.20;;;;;;;5.46;65.59;94290.02;1754531;82;21687;-68
2021/04/06 12:07:42;;;;;;;3.43;2.83;;;;;;;4.92;67.73;94296.27;1754076;82;21121;-68
2021/04/06 12:10:14;;;;;;;4.17;2.90;;;;;;;4.66;68.18;94305.88;1754253;82;21105;-68
2021/04/06 12:12:42;;;;;;;5.17;3.80;;;;;;;4.27;69.59;94310.82;1754250;82;21563;-68
2021/04/06 12:15:11;;;;;;;6.70;3.80;;;;;;;3.97;70.83;94324.31;1754069;82;21948;-68